Time;durP1;ratioP1;P1;durP2;ratioP2;P2;SDS_P1;SDS_P2;PMS_P1;PMS_P2;Temp;Humidity;BMP_temperature;BMP_pressure;BME280_temperature;BME280_humidity;BME280_pressure;Samples;Min_cycle;Max_cycle;Signal;HPM_P1;HPM_P2
2023/02/09 00:00:09;;;;;;;29.60;20.00;;;;;;;-0.44;70.96;102902.91;5052319;28;20221;-74
2023/02/09 00:02:37;;;;;;;28.80;19.87;;;;;;;-0.41;71.99;102886.81;5051720;28;20256;-74
2023/02/09 00:05:03;;;;;;;31.03;20.77;;;;;;;-0.52;72.29;102880.94;5052091;28;20211;-74
2023/02/09 00:07:30;;;;;;;28.37;19.63;;;;;;;-0.62;71.79;102874.31;5052312;28;20264;-74
2023/02/09 00:09:56;;;;;;;28.30;19.70;;;;;;;-0.61;71.74;102863.28;5051783;28;20780;-74
2023/02/09 00:15:08;;;;;;;26.73;18.37;;;;;;;-0.67;72.79;102831.22;5051904;28;20235;-74
2023/02/09 00:17:36;;;;;;;32.37;20.13;;;;;;;-0.58;73.18;102824.13;5052237;28;20354;-74
2023/02/09 00:20:03;;;;;;;28.10;20.27;;;;;;;-0.67;72.53;102816.72;5051703;28;20719;-74
2023/02/09 00:22:30;;;;;;;27.90;18.63;;;;;;;-0.83;71.95;102819.97;5051587;28;20263;-74
2023/02/09 00:24:56;;;;;;;32.13;19.60;;;;;;;-0.72;72.37;102823.22;5051979;28;20679;-74
2023/02/09 00:27:23;;;;;;;27.57;20.50;;;;;;;-0.80;73.09;102809.00;5052065;28;20606;-74
2023/02/09 00:29:49;;;;;;;30.20;18.90;;;;;;;-0.72;72.94;102804.38;5051699;28;20282;-74
2023/02/09 00:32:17;;;;;;;27.10;19.00;;;;;;;-0.86;73.16;102791.53;5051200;28;20207;-74
2023/02/09 00:34:43;;;;;;;29.73;19.07;;;;;;;-0.84;72.55;102794.22;5051497;28;20230;-74
2023/02/09 00:37:10;;;;;;;28.47;19.10;;;;;;;-0.85;72.19;102795.91;5051652;28;20251;-74
2023/02/09 00:39:36;;;;;;;27.27;18.90;;;;;;;-0.76;72.42;102799.84;5051850;28;20233;-74
2023/02/09 00:42:06;;;;;;;26.60;18.50;;;;;;;-0.77;72.25;102793.84;5051321;28;20239;-74
2023/02/09 00:44:33;;;;;;;25.63;18.10;;;;;;;-0.69;72.92;102799.47;5050672;28;20202;-74
2023/02/09 00:46:59;;;;;;;25.30;18.07;;;;;;;-0.67;71.81;102803.91;5051559;28;20206;-74
2023/02/09 00:49:27;;;;;;;26.73;19.07;;;;;;;-0.61;71.09;102814.56;5051549;28;20229;-74
2023/02/09 00:51:54;;;;;;;22.70;17.90;;;;;;;-0.62;71.88;102837.53;5051760;28;20555;-74
2023/02/09 00:54:20;;;;;;;22.00;18.00;;;;;;;-0.75;72.32;102828.16;5051639;28;20255;-74
2023/02/09 00:56:47;;;;;;;23.13;17.77;;;;;;;-0.80;71.52;102811.56;5051228;28;20202;-74
2023/02/09 00:59:13;;;;;;;30.57;20.03;;;;;;;-0.82;71.89;102818.28;5051284;28;20626;-74
2023/02/09 01:01:40;;;;;;;21.93;16.70;;;;;;;-0.78;72.06;102817.69;5050681;28;20209;-74
2023/02/09 01:04:06;;;;;;;25.77;17.53;;;;;;;-0.70;72.36;102813.06;5034552;28;20198;-74
2023/02/09 01:06:34;;;;;;;23.00;17.47;;;;;;;-0.63;70.79;102820.38;5031306;28;20252;-74
2023/02/09 01:09:01;;;;;;;26.83;17.33;;;;;;;-0.66;69.34;102840.69;5031572;28;20648;-74
2023/02/09 01:11:28;;;;;;;25.57;18.27;;;;;;;-0.63;69.90;102869.13;5031551;28;20260;-74
2023/02/09 01:13:56;;;;;;;25.23;15.70;;;;;;;-0.72;70.50;102878.75;5031419;28;20300;-74
2023/02/09 01:16:23;;;;;;;23.60;17.37;;;;;;;-0.67;70.42;102880.84;5031293;28;20769;-74
2023/02/09 01:18:50;;;;;;;22.77;17.00;;;;;;;-0.65;70.83;102881.84;5031211;28;20597;-74
2023/02/09 01:21:19;;;;;;;21.60;16.60;;;;;;;-0.64;70.85;102875.91;5031286;28;20266;-74
2023/02/09 01:23:47;;;;;;;24.30;16.93;;;;;;;-0.66;70.37;102874.03;5031227;28;20693;-74
2023/02/09 01:26:16;;;;;;;21.93;17.17;;;;;;;-0.84;71.81;102879.69;5031387;28;20258;-74
2023/02/09 01:28:43;;;;;;;21.50;17.17;;;;;;;-0.86;71.38;102850.50;5031054;28;20787;-74
2023/02/09 01:31:20;;;;;;;26.17;17.93;;;;;;;-0.95;69.85;102849.91;5031135;28;20264;-74
2023/02/09 01:33:47;;;;;;;21.77;17.83;;;;;;;-0.83;70.70;102860.09;5031235;28;20212;-74
2023/02/09 01:36:14;;;;;;;22.30;17.10;;;;;;;-0.86;70.45;102845.38;5031220;28;20286;-74
2023/02/09 01:38:40;;;;;;;20.83;16.30;;;;;;;-1.00;71.75;102859.84;5031383;28;20272;-74
2023/02/09 01:41:08;;;;;;;22.27;16.47;;;;;;;-1.01;72.28;102834.13;5030953;28;20557;-74
2023/02/09 01:43:52;;;;;;;21.33;15.77;;;;;;;-0.95;72.01;102819.16;5031111;28;20215;-74
2023/02/09 01:46:18;;;;;;;21.13;16.77;;;;;;;-0.92;72.17;102816.78;5031160;28;20236;-74
2023/02/09 01:48:45;;;;;;;20.83;16.60;;;;;;;-1.05;72.20;102809.06;5030928;28;20234;-74
2023/02/09 01:51:12;;;;;;;22.50;16.47;;;;;;;-0.98;72.29;102793.31;5031036;28;20211;-75
2023/02/09 01:53:38;;;;;;;20.93;16.03;;;;;;;-0.97;73.06;102789.97;5031056;28;20743;-74
2023/02/09 01:56:11;;;;;;;23.77;16.40;;;;;;;-0.98;73.62;102759.09;5032790;28;20226;-74
2023/02/09 01:58:39;;;;;;;19.73;16.17;;;;;;;-1.00;72.86;102741.06;5036900;28;20222;-74
2023/02/09 02:01:05;;;;;;;20.53;15.13;;;;;;;-0.98;72.51;102743.72;5054479;28;20490;-74
2023/02/09 02:03:32;;;;;;;20.90;16.70;;;;;;;-1.00;72.35;102739.38;5043440;28;20257;-74
2023/02/09 02:06:03;;;;;;;19.50;16.17;;;;;;;-1.10;72.89;102741.25;5034867;28;20252;-74
2023/02/09 02:08:33;;;;;;;18.30;14.00;;;;;;;-1.09;71.93;102743.91;5034899;28;20230;-74
2023/02/09 02:11:01;;;;;;;21.37;15.17;;;;;;;-1.05;71.61;102757.78;5034574;28;20215;-75
2023/02/09 02:13:28;;;;;;;19.27;15.43;;;;;;;-1.05;71.66;102750.09;5034626;28;20642;-75
2023/02/09 02:16:03;;;;;;;19.13;14.80;;;;;;;-1.02;70.98;102738.38;5034390;28;20230;-75
2023/02/09 02:18:54;;;;;;;20.53;14.97;;;;;;;-1.02;71.22;102752.88;5034749;28;20233;-75
2023/02/09 02:21:56;;;;;;;17.90;14.27;;;;;;;-1.01;71.95;102746.97;5033906;28;20211;-75
2023/02/09 02:24:37;;;;;;;17.17;14.10;;;;;;;-1.12;71.84;102750.50;5034283;28;20214;-75
2023/02/09 02:27:07;;;;;;;17.30;14.57;;;;;;;-1.16;72.43;102746.84;5034094;28;20264;-74
2023/02/09 02:29:58;;;;;;;17.80;14.47;;;;;;;-1.20;73.17;102719.25;5033999;28;20279;-75
2023/02/09 02:32:44;;;;;;;18.40;14.00;;;;;;;-1.40;72.24;102721.38;5034124;28;20301;-75
2023/02/09 02:35:19;;;;;;;17.43;14.17;;;;;;;-1.44;72.87;102713.38;5025977;28;20226;-75
2023/02/09 02:37:57;;;;;;;20.07;14.90;;;;;;;-1.56;73.33;102703.22;5034038;28;20205;-74
2023/02/09 02:40:34;;;;;;;15.40;13.40;;;;;;;-1.58;72.61;102685.97;5033620;28;20253;-75
2023/02/09 02:43:12;;;;;;;16.00;14.00;;;;;;;-1.42;72.51;102697.31;5033732;28;20202;-74
2023/02/09 02:45:43;;;;;;;18.23;14.00;;;;;;;-1.45;71.36;102685.97;5033986;28;20207;-75
2023/02/09 02:48:20;;;;;;;17.67;13.13;;;;;;;-1.38;71.91;102700.97;5033687;28;20264;-74
2023/02/09 02:50:52;;;;;;;16.43;14.67;;;;;;;-1.32;72.01;102700.50;5033526;28;20256;-75
2023/02/09 02:53:23;;;;;;;16.00;14.07;;;;;;;-1.32;72.38;102700.50;5033784;28;20210;-74
2023/02/09 02:55:52;;;;;;;16.57;13.63;;;;;;;-1.44;71.57;102698.91;5033666;28;20696;-75
2023/02/09 02:58:22;;;;;;;18.97;14.10;;;;;;;-1.46;72.10;102702.16;5033537;28;20226;-74
2023/02/09 03:00:53;;;;;;;16.23;13.60;;;;;;;-1.38;71.13;102700.97;5033746;28;20257;-73
2023/02/09 03:03:27;;;;;;;20.00;13.63;;;;;;;-1.37;69.79;102732.59;5033589;28;20202;-74
2023/02/09 03:05:53;;;;;;;16.40;12.50;;;;;;;-1.36;70.75;102735.28;5033535;28;20233;-75
2023/02/09 03:08:20;;;;;;;15.57;13.13;;;;;;;-1.43;70.77;102751.00;5032436;28;20226;-74
2023/02/09 03:10:47;;;;;;;15.13;12.80;;;;;;;-1.49;69.30;102732.66;5033198;28;20555;-74
2023/02/09 03:13:29;;;;;;;17.47;12.00;;;;;;;-1.40;68.79;102761.47;5033278;28;20236;-74
2023/02/09 03:16:06;;;;;;;13.70;11.67;;;;;;;-1.44;69.03;102762.94;5033342;28;20311;-74
2023/02/09 03:18:43;;;;;;;17.10;11.83;;;;;;;-1.28;69.76;102784.47;5033280;28;20238;-74
2023/02/09 03:21:15;;;;;;;18.60;12.77;;;;;;;-1.41;71.16;102785.28;5033431;28;20279;-74
2023/02/09 03:23:48;;;;;;;14.17;11.70;;;;;;;-1.42;71.25;102760.50;5033153;28;20269;-74
2023/02/09 03:26:20;;;;;;;14.63;11.70;;;;;;;-1.40;70.42;102752.09;5032986;28;20206;-74
2023/02/09 03:28:50;;;;;;;18.60;12.90;;;;;;;-1.47;69.65;102751.59;5033159;28;20288;-74
2023/02/09 03:31:18;;;;;;;15.50;11.23;;;;;;;-1.37;69.60;102764.22;5032858;28;20259;-74
2023/02/09 03:33:45;;;;;;;13.30;11.70;;;;;;;-1.37;70.55;102766.78;5032907;28;20324;-74
2023/02/09 03:36:15;;;;;;;14.33;11.27;;;;;;;-1.43;70.69;102761.25;5033120;28;20227;-74
2023/02/09 03:38:41;;;;;;;14.73;11.77;;;;;;;-1.46;70.54;102759.38;5032806;28;20264;-73
2023/02/09 03:41:08;;;;;;;12.47;11.10;;;;;;;-1.48;69.81;102758.41;5032690;28;20283;-74
2023/02/09 03:46:18;;;;;;;15.90;11.57;;;;;;;-1.51;71.72;102747.94;5032826;28;20220;-74
2023/02/09 03:48:48;;;;;;;13.10;11.07;;;;;;;-1.57;71.33;102731.28;5032867;28;20230;-73
2023/02/09 03:51:15;;;;;;;13.30;10.70;;;;;;;-1.50;70.12;102734.34;5032282;28;20588;-74
2023/02/09 03:53:41;;;;;;;14.30;11.50;;;;;;;-1.45;69.90;102750.00;5032596;28;20263;-73
2023/02/09 03:56:08;;;;;;;10.80;9.70;;;;;;;-1.52;70.54;102741.03;5032556;28;20230;-73
2023/02/09 03:58:35;;;;;;;11.57;10.40;;;;;;;-1.49;69.82;102742.91;5032504;28;20300;-74
2023/02/09 04:01:04;;;;;;;11.57;9.70;;;;;;;-1.59;70.98;102746.53;5032203;28;20680;-73
2023/02/09 04:03:30;;;;;;;11.20;9.70;;;;;;;-1.55;68.86;102745.94;5032121;28;20212;-73
2023/02/09 04:05:58;;;;;;;11.57;9.50;;;;;;;-1.52;68.42;102746.16;5040704;28;20210;-74
2023/02/09 04:08:25;;;;;;;11.00;9.53;;;;;;;-1.42;68.40;102761.38;5032320;28;20225;-73
2023/02/09 04:10:51;;;;;;;11.83;9.93;;;;;;;-1.33;68.53;102770.44;5032174;28;20213;-75
2023/02/09 04:13:18;;;;;;;12.03;9.70;;;;;;;-1.37;68.00;102778.72;5032287;28;20260;-74
2023/02/09 04:15:44;;;;;;;11.13;9.63;;;;;;;-1.37;68.10;102773.59;5032505;28;20773;-74
2023/02/09 04:18:10;;;;;;;10.83;9.60;;;;;;;-1.52;69.89;102788.81;5031690;28;20202;-73
2023/02/09 04:20:37;;;;;;;10.80;9.20;;;;;;;-1.52;70.14;102768.34;5032313;28;20210;-74
2023/02/09 04:23:05;;;;;;;10.53;8.57;;;;;;;-1.58;69.47;102748.31;5031851;28;20626;-74
2023/02/09 04:25:31;;;;;;;11.67;10.13;;;;;;;-1.45;67.92;102753.50;5032133;28;20233;-73
2023/02/09 04:27:57;;;;;;;11.00;9.43;;;;;;;-1.36;67.02;102757.44;5031960;28;20256;-73
2023/02/09 04:30:24;;;;;;;10.50;9.40;;;;;;;-1.24;67.33;102789.88;5031841;28;20213;-74
2023/02/09 04:32:51;;;;;;;11.70;9.50;;;;;;;-1.29;66.36;102801.53;5031595;28;20283;-73
2023/02/09 04:35:18;;;;;;;14.47;9.27;;;;;;;-1.20;65.82;102847.38;5035529;28;20206;-73
2023/02/09 04:37:44;;;;;;;13.40;9.87;;;;;;;-1.18;66.12;102855.16;5051628;28;20674;-73
2023/02/09 04:40:12;;;;;;;13.27;10.00;;;;;;;-1.08;66.46;102866.13;5051786;28;20220;-73
2023/02/09 04:42:38;;;;;;;11.23;10.00;;;;;;;-1.11;66.19;102867.59;5051540;28;20618;-74
2023/02/09 04:45:05;;;;;;;10.83;9.53;;;;;;;-1.14;66.88;102878.53;5051707;28;20201;-74
2023/02/09 04:47:32;;;;;;;10.07;8.97;;;;;;;-1.15;65.86;102863.03;5051526;28;20222;-74
2023/02/09 04:49:58;;;;;;;10.23;8.93;;;;;;;-1.16;66.06;102871.53;5051717;28;20227;-74
2023/02/09 04:52:25;;;;;;;10.67;9.17;;;;;;;-1.12;66.34;102881.19;5051606;28;20231;-74
2023/02/09 04:54:51;;;;;;;12.10;9.53;;;;;;;-1.08;65.80;102872.94;5051789;28;20202;-74
2023/02/09 05:00:04;;;;;;;10.00;8.70;;;;;;;-1.12;64.59;102917.09;5051534;28;20689;-74
2023/02/09 05:02:30;;;;;;;10.93;9.13;;;;;;;-1.14;63.45;102936.59;5049046;28;20203;-74
2023/02/09 05:04:57;;;;;;;10.37;8.73;;;;;;;-1.11;64.00;102947.94;5039806;28;20283;-74
2023/02/09 05:07:25;;;;;;;15.93;9.43;;;;;;;-1.09;63.48;102948.03;5031678;28;20613;-74
2023/02/09 05:09:51;;;;;;;10.07;8.97;;;;;;;-1.02;64.15;102968.19;5031650;28;20230;-74
2023/02/09 05:12:19;;;;;;;10.77;9.30;;;;;;;-1.06;63.37;102969.66;5031246;28;20244;-74
2023/02/09 05:14:45;;;;;;;11.80;9.50;;;;;;;-1.01;64.77;102977.69;5031805;28;20213;-74
2023/02/09 05:17:12;;;;;;;11.27;9.90;;;;;;;-1.26;63.68;102960.56;5031733;28;20277;-74
2023/02/09 05:19:38;;;;;;;10.30;9.13;;;;;;;-1.07;63.42;102956.72;5031354;28;20232;-74
2023/02/09 05:22:05;;;;;;;9.67;8.73;;;;;;;-1.06;63.88;102961.94;5031313;28;20206;-74
2023/02/09 05:24:31;;;;;;;11.90;9.43;;;;;;;-1.00;64.46;102964.06;5031479;28;20210;-74
2023/02/09 05:26:57;;;;;;;10.40;9.20;;;;;;;-0.99;64.03;102947.91;5031291;28;20211;-74
2023/02/09 05:29:25;;;;;;;14.10;9.13;;;;;;;-1.03;65.17;102948.44;5031408;28;20222;-74
2023/02/09 05:31:52;;;;;;;13.10;8.90;;;;;;;-1.15;63.61;102951.09;5034594;28;20280;-74
2023/02/09 05:34:18;;;;;;;11.03;8.83;;;;;;;-1.30;63.58;102956.00;5038550;28;20201;-74
2023/02/09 05:36:46;;;;;;;11.47;9.07;;;;;;;-1.24;64.74;102958.13;5023993;28;20276;-74
2023/02/09 05:39:12;;;;;;;9.47;8.50;;;;;;;-1.14;65.23;102936.59;5015323;28;20717;-75
2023/02/09 05:44:25;;;;;;;10.10;9.00;;;;;;;-1.26;64.10;102911.88;5015163;28;20584;-75
2023/02/09 05:46:51;;;;;;;10.50;9.40;;;;;;;-1.24;65.81;102918.00;5015231;28;20199;-74
2023/02/09 05:49:17;;;;;;;10.60;9.17;;;;;;;-1.39;64.63;102906.69;5015083;28;20285;-75
2023/02/09 05:51:45;;;;;;;10.70;9.50;;;;;;;-1.38;65.16;102911.03;5015661;28;20230;-74
2023/02/09 05:54:11;;;;;;;11.93;9.83;;;;;;;-1.31;66.04;102912.34;5016480;28;20259;-74
2023/02/09 05:56:38;;;;;;;11.27;8.50;;;;;;;-1.38;65.81;102894.78;5016354;28;20227;-74
2023/02/09 05:59:04;;;;;;;10.60;9.50;;;;;;;-1.44;65.95;102880.75;5015911;28;20236;-74
2023/02/09 06:01:33;;;;;;;10.63;9.03;;;;;;;-1.49;65.31;102882.09;5014908;28;20202;-74
2023/02/09 06:03:59;;;;;;;9.57;8.57;;;;;;;-1.50;67.01;102889.69;5022677;28;20215;-74
2023/02/09 06:06:26;;;;;;;9.93;8.93;;;;;;;-1.52;65.59;102848.59;5026869;28;20210;-75
2023/02/09 06:08:52;;;;;;;10.77;8.67;;;;;;;-1.40;66.08;102853.69;5034435;28;20226;-74
2023/02/09 06:11:19;;;;;;;10.83;8.83;;;;;;;-1.52;66.44;102842.59;5034176;28;20233;-75
2023/02/09 06:13:45;;;;;;;10.53;9.43;;;;;;;-1.52;66.52;102851.16;5034147;28;20210;-74
2023/02/09 06:16:12;;;;;;;11.27;8.60;;;;;;;-1.59;66.45;102846.41;5034352;28;20230;-75
2023/02/09 06:18:39;;;;;;;11.63;8.37;;;;;;;-1.72;66.37;102837.00;5034391;28;20222;-74
2023/02/09 06:21:06;;;;;;;10.37;9.27;;;;;;;-1.71;67.15;102840.44;5035074;28;20583;-74
2023/02/09 06:23:32;;;;;;;10.40;8.23;;;;;;;-1.83;66.18;102814.84;5035505;28;20638;-74
2023/02/09 06:25:59;;;;;;;10.57;8.40;;;;;;;-1.71;67.32;102831.06;5035494;28;20567;-75
2023/02/09 06:28:25;;;;;;;10.37;9.27;;;;;;;-1.74;68.32;102805.28;5035178;28;20281;-74
2023/02/09 06:30:53;;;;;;;11.97;9.90;;;;;;;-1.88;68.36;102808.53;5034113;28;20680;-74
2023/02/09 06:33:20;;;;;;;11.50;10.13;;;;;;;-1.88;68.07;102778.72;5034063;28;20580;-74
2023/02/09 06:35:48;;;;;;;10.03;8.53;;;;;;;-1.90;66.83;102772.59;5033820;28;20559;-74
2023/02/09 06:38:14;;;;;;;10.10;8.97;;;;;;;-1.83;67.66;102787.56;5034087;28;20222;-74
2023/02/09 06:40:40;;;;;;;10.20;9.07;;;;;;;-1.80;66.29;102782.69;5033924;28;20270;-73
2023/02/09 06:43:07;;;;;;;12.00;9.53;;;;;;;-1.78;66.99;102787.91;5033673;28;20201;-74
2023/02/09 06:45:33;;;;;;;11.10;9.77;;;;;;;-1.85;68.10;102799.38;5033879;28;20252;-74
2023/02/09 06:48:00;;;;;;;11.83;9.20;;;;;;;-1.81;66.79;102796.25;5033512;28;20217;-74
2023/02/09 06:50:26;;;;;;;13.33;10.10;;;;;;;-1.83;65.84;102794.38;5033743;28;20219;-74
2023/02/09 06:52:54;;;;;;;11.40;9.10;;;;;;;-1.78;66.16;102827.97;5033565;28;20206;-74
2023/02/09 06:55:20;;;;;;;10.97;9.07;;;;;;;-1.82;66.76;102835.44;5031616;28;20202;-74
2023/02/09 06:57:46;;;;;;;12.00;8.70;;;;;;;-1.89;65.80;102835.78;5026189;28;20237;-74
2023/02/09 07:00:14;;;;;;;11.43;8.83;;;;;;;-1.74;65.75;102843.66;5023675;28;20222;-74
2023/02/09 07:02:41;;;;;;;12.23;8.63;;;;;;;-1.85;65.24;102853.13;5024743;28;20613;-74
2023/02/09 07:05:08;;;;;;;9.90;8.50;;;;;;;-1.74;64.35;102866.72;5025669;28;20206;-74
2023/02/09 07:07:34;;;;;;;10.20;8.83;;;;;;;-1.61;65.24;102883.81;5024125;28;20194;-74
2023/02/09 07:10:02;;;;;;;14.33;9.93;;;;;;;-1.53;63.66;102897.16;5023115;28;20222;-75
2023/02/09 07:12:29;;;;;;;11.03;9.47;;;;;;;-1.48;64.37;102899.25;5021467;28;20250;-74
2023/02/09 07:14:55;;;;;;;9.60;8.60;;;;;;;-1.37;64.24;102905.13;5024634;28;20249;-74
2023/02/09 07:17:21;;;;;;;12.43;8.87;;;;;;;-1.38;65.21;102908.47;5022059;28;20651;-75
2023/02/09 07:19:48;;;;;;;9.70;8.70;;;;;;;-1.44;64.63;102890.13;5023705;28;20264;-74
2023/02/09 07:22:15;;;;;;;10.17;9.00;;;;;;;-1.53;65.66;102909.97;5029584;28;20206;-75
2023/02/09 07:24:41;;;;;;;10.33;8.60;;;;;;;-1.57;66.94;102882.38;5023749;28;20262;-74
2023/02/09 07:27:09;;;;;;;13.37;9.10;;;;;;;-1.63;66.17;102898.19;5023485;28;20244;-75
2023/02/09 07:29:35;;;;;;;10.23;8.63;;;;;;;-1.62;64.12;102862.44;5021964;28;20218;-74
2023/02/09 07:32:02;;;;;;;10.20;8.93;;;;;;;-1.54;64.50;102873.22;5022016;28;20202;-74
2023/02/09 07:34:28;;;;;;;11.80;9.53;;;;;;;-1.54;64.96;102885.16;5023365;28;20260;-74
2023/02/09 07:36:54;;;;;;;10.77;9.20;;;;;;;-1.47;64.19;102887.34;5021518;28;20689;-74
2023/02/09 07:39:21;;;;;;;13.67;9.97;;;;;;;-1.49;64.59;102902.59;5022135;28;20275;-74
2023/02/09 07:41:47;;;;;;;9.73;8.70;;;;;;;-1.40;63.50;102910.06;5020778;28;20199;-74
2023/02/09 07:44:15;;;;;;;10.20;8.80;;;;;;;-1.33;62.51;102925.03;5022850;28;20253;-75
2023/02/09 07:46:42;;;;;;;10.47;9.17;;;;;;;-1.18;63.42;102955.09;5022507;28;20206;-75
2023/02/09 07:49:09;;;;;;;10.60;8.57;;;;;;;-1.13;63.49;102949.53;5020943;28;20223;-74
2023/02/09 07:51:35;;;;;;;11.43;9.70;;;;;;;-1.07;63.79;102965.31;5027145;28;20198;-74
2023/02/09 07:54:02;;;;;;;10.20;8.77;;;;;;;-1.06;62.31;102959.38;5029195;28;20226;-73
2023/02/09 07:56:29;;;;;;;10.33;9.13;;;;;;;-0.91;62.60;102990.34;5021031;28;20204;-74
2023/02/09 07:58:56;;;;;;;10.60;8.67;;;;;;;-0.80;62.49;102989.38;5021616;28;20242;-74
2023/02/09 08:01:24;;;;;;;10.63;9.53;;;;;;;-0.76;62.03;103016.13;5022083;28;20242;-74
2023/02/09 08:03:51;;;;;;;9.37;8.40;;;;;;;-0.65;62.77;103025.47;5020701;28;20200;-74
2023/02/09 08:06:22;;;;;;;12.23;7.90;;;;;;;-0.65;61.67;103024.59;5022466;28;20689;-74
2023/02/09 08:08:50;;;;;;;10.73;8.30;;;;;;;-0.79;60.98;103054.41;5021555;28;20706;-74
2023/02/09 08:11:19;;;;;;;11.03;9.90;;;;;;;-0.75;62.44;103068.31;5020564;28;20205;-74
2023/02/09 08:13:47;;;;;;;10.13;8.40;;;;;;;-0.78;61.61;103053.59;5022072;28;20199;-74
2023/02/09 08:16:17;;;;;;;10.80;8.00;;;;;;;-0.85;61.62;103062.56;5022254;28;20203;-74
2023/02/09 08:18:50;;;;;;;9.10;8.10;;;;;;;-0.80;61.67;103063.75;5020712;28;20231;-74
2023/02/09 08:21:18;;;;;;;12.10;8.57;;;;;;;-0.81;62.01;103069.69;5024812;28;20211;-75
2023/02/09 08:23:49;;;;;;;10.40;8.23;;;;;;;-0.80;63.10;103053.50;5031859;28;20206;-74
2023/02/09 08:26:15;;;;;;;8.87;7.73;;;;;;;-0.71;63.05;103049.81;5022407;28;20668;-74
2023/02/09 08:28:43;;;;;;;9.20;8.30;;;;;;;-0.58;64.21;103046.41;5022352;28;20214;-75
2023/02/09 08:31:09;;;;;;;9.33;8.07;;;;;;;-0.51;64.42;103016.16;5021068;28;20583;-74
2023/02/09 08:33:36;;;;;;;10.23;8.90;;;;;;;-0.52;63.95;102985.25;5020464;28;20214;-75
2023/02/09 08:36:04;;;;;;;11.17;9.30;;;;;;;-0.53;64.59;102963.84;5020374;28;20199;-74
2023/02/09 08:38:30;;;;;;;10.33;9.20;;;;;;;-0.58;63.18;102936.97;5020968;28;20368;-74
2023/02/09 08:40:57;;;;;;;10.40;8.93;;;;;;;-0.49;64.48;102960.69;5022161;28;20221;-74
2023/02/09 08:43:23;;;;;;;10.63;9.53;;;;;;;-0.53;62.58;102920.22;5020323;28;20271;-74
2023/02/09 08:45:51;;;;;;;10.13;9.00;;;;;;;-0.44;61.72;102945.59;5020929;28;20631;-74
2023/02/09 08:48:17;;;;;;;10.20;8.40;;;;;;;-0.37;61.70;102978.59;5022102;28;20231;-75
2023/02/09 08:50:44;;;;;;;9.83;8.83;;;;;;;-0.37;61.30;103000.81;5022122;28;20207;-75
2023/02/09 08:53:11;;;;;;;10.97;8.93;;;;;;;-0.28;61.21;103006.53;5029089;28;20211;-74
2023/02/09 08:55:38;;;;;;;9.60;8.60;;;;;;;-0.21;62.49;103030.16;5023101;28;20664;-74
2023/02/09 08:58:06;;;;;;;10.77;9.07;;;;;;;-0.24;60.64;103001.72;5020164;28;20228;-75
2023/02/09 09:00:33;;;;;;;13.70;8.90;;;;;;;-0.19;61.45;103030.25;5020950;28;20201;-75
2023/02/09 09:03:04;;;;;;;11.60;8.73;;;;;;;-0.28;60.59;102999.75;5022022;28;20203;-74
2023/02/09 09:05:30;;;;;;;9.60;8.57;;;;;;;-0.23;62.00;103036.84;5022389;28;20203;-74
2023/02/09 09:07:57;;;;;;;10.63;9.03;;;;;;;-0.15;62.00;103024.53;5024078;28;20696;-74
2023/02/09 09:10:25;;;;;;;10.27;8.83;;;;;;;-0.07;62.54;103032.75;5024208;28;20244;-74
2023/02/09 09:12:51;;;;;;;10.60;8.80;;;;;;;0.02;61.26;103037.59;5024726;28;20267;-74
2023/02/09 09:15:18;;;;;;;11.53;8.80;;;;;;;-0.06;60.34;103049.91;5023523;28;20208;-74
2023/02/09 09:17:45;;;;;;;9.80;8.80;;;;;;;-0.06;59.66;103068.81;5024319;28;20215;-74
2023/02/09 09:20:11;;;;;;;10.03;8.33;;;;;;;-0.12;58.88;103103.41;5025261;28;20277;-74
2023/02/09 09:22:38;;;;;;;10.03;9.03;;;;;;;-0.06;59.11;103120.16;5033010;28;20268;-74
2023/02/09 09:25:05;;;;;;;9.63;8.47;;;;;;;-0.02;59.60;103137.53;5027660;28;20211;-74
2023/02/09 09:27:34;;;;;;;10.23;9.00;;;;;;;0.14;60.28;103149.75;5025077;28;20619;-74
2023/02/09 09:30:01;;;;;;;10.27;9.17;;;;;;;0.18;59.29;103149.16;5023666;28;20218;-74
2023/02/09 09:32:28;;;;;;;10.43;8.57;;;;;;;0.19;58.63;103150.03;5024837;28;20228;-74
2023/02/09 09:34:56;;;;;;;11.97;8.77;;;;;;;0.25;59.87;103170.13;5025308;28;20231;-74
2023/02/09 09:37:23;;;;;;;9.63;8.57;;;;;;;0.36;59.97;103167.47;5023425;28;20648;-74
2023/02/09 09:39:50;;;;;;;13.43;9.27;;;;;;;0.25;58.93;103160.72;5024389;28;20226;-74
2023/02/09 09:42:24;;;;;;;10.77;8.97;;;;;;;0.36;59.59;103171.72;5025289;28;20389;-75
2023/02/09 09:44:53;;;;;;;12.80;10.43;;;;;;;0.34;58.38;103169.06;5024662;28;20207;-74
2023/02/09 09:47:24;;;;;;;12.03;8.87;;;;;;;0.44;59.01;103183.41;5023233;28;20225;-74
2023/02/09 09:49:50;;;;;;;10.30;9.13;;;;;;;0.48;59.47;103190.53;5024290;28;20222;-74
2023/02/09 09:52:20;;;;;;;10.07;8.77;;;;;;;0.58;59.30;103197.19;5030964;28;20221;-74
2023/02/09 09:54:47;;;;;;;9.83;8.50;;;;;;;0.63;59.44;103198.34;5027287;28;20205;-75
2023/02/09 09:57:19;;;;;;;10.77;9.60;;;;;;;0.68;59.09;103203.81;5024037;28;20254;-75
2023/02/09 09:59:46;;;;;;;12.10;9.40;;;;;;;0.70;58.62;103207.38;5025867;28;20706;-75
2023/02/09 10:02:22;;;;;;;11.20;9.50;;;;;;;0.61;58.58;103211.91;5023801;28;20611;-75
2023/02/09 10:04:49;;;;;;;12.57;9.53;;;;;;;0.75;58.86;103221.41;5024798;28;20215;-75
2023/02/09 10:07:17;;;;;;;11.37;9.50;;;;;;;0.84;58.73;103222.03;5024890;28;20204;-75
2023/02/09 10:09:49;;;;;;;12.00;9.87;;;;;;;0.88;58.61;103216.31;5025085;28;20225;-75
2023/02/09 10:12:30;;;;;;;10.27;9.20;;;;;;;0.95;57.70;103215.91;5024585;28;20228;-76
2023/02/09 10:14:57;;;;;;;9.20;8.30;;;;;;;1.03;57.90;103229.28;5024728;28;20205;-75
2023/02/09 10:17:24;;;;;;;10.87;9.63;;;;;;;0.81;56.89;103229.53;5022141;28;20223;-76
2023/02/09 10:20:01;;;;;;;12.90;9.53;;;;;;;0.90;58.70;103249.84;5023893;28;20215;-76
2023/02/09 10:22:28;;;;;;;12.13;9.73;;;;;;;0.97;59.06;103244.28;5030683;28;20687;-75
2023/02/09 10:24:54;;;;;;;10.67;9.27;;;;;;;1.09;59.00;103244.19;5027046;28;20731;-76
2023/02/09 10:27:26;;;;;;;13.97;8.70;;;;;;;1.05;57.39;103224.22;5022713;28;20254;-76
2023/02/09 10:29:52;;;;;;;11.83;9.60;;;;;;;1.12;58.53;103250.44;5023183;28;20771;-76
2023/02/09 10:32:21;;;;;;;12.77;9.67;;;;;;;1.14;58.45;103228.28;5024665;28;20230;-76
2023/02/09 10:34:51;;;;;;;14.20;9.87;;;;;;;1.28;58.62;103231.75;5023158;28;20250;-76
2023/02/09 10:37:20;;;;;;;10.27;9.10;;;;;;;1.35;57.81;103227.91;5022834;28;20198;-77
2023/02/09 10:40:01;;;;;;;10.80;9.17;;;;;;;1.43;57.58;103230.94;5021243;28;20639;-77
2023/02/09 10:42:31;;;;;;;12.00;9.40;;;;;;;1.50;57.88;103230.53;5022981;28;20600;-77
2023/02/09 10:45:03;;;;;;;11.00;9.67;;;;;;;1.67;57.97;103234.19;5022760;28;20198;-77
2023/02/09 10:47:31;;;;;;;11.00;9.90;;;;;;;1.75;57.44;103217.53;5023279;28;20202;-77
2023/02/09 10:50:15;;;;;;;10.40;9.27;;;;;;;1.68;57.57;103231.69;5022587;28;20215;-77
2023/02/09 10:52:53;;;;;;;12.53;9.57;;;;;;;1.43;57.43;103251.53;5031331;28;20209;-77
2023/02/09 10:55:24;;;;;;;10.80;9.70;;;;;;;1.50;57.32;103257.16;5024385;28;20202;-77
2023/02/09 10:57:50;;;;;;;10.93;9.80;;;;;;;1.62;58.06;103257.06;5028897;28;20662;-77
2023/02/09 11:00:32;;;;;;;11.83;9.57;;;;;;;1.60;57.05;103245.75;5033689;28;20279;-77
2023/02/09 11:03:01;;;;;;;9.43;8.53;;;;;;;1.64;56.33;103265.75;5033806;28;20691;-77
2023/02/09 11:05:34;;;;;;;11.13;9.43;;;;;;;1.61;55.66;103262.13;5034080;28;20703;-77
2023/02/09 11:08:11;;;;;;;11.10;9.90;;;;;;;1.72;56.62;103269.69;5033723;28;20731;-77
2023/02/09 11:10:42;;;;;;;10.60;9.23;;;;;;;1.76;55.89;103268.22;5034749;28;20212;-77
2023/02/09 11:13:21;;;;;;;10.27;9.10;;;;;;;1.83;57.07;103272.09;5034916;28;20257;-78
2023/02/09 11:16:11;;;;;;;12.47;9.60;;;;;;;1.67;55.60;103259.94;5035208;28;20208;-78
2023/02/09 11:18:42;;;;;;;9.47;8.43;;;;;;;1.82;56.13;103262.56;5034661;28;20320;-78
2023/02/09 11:21:14;;;;;;;10.37;9.37;;;;;;;1.93;55.94;103244.41;5043212;28;20263;-78
2023/02/09 11:23:49;;;;;;;10.47;9.37;;;;;;;1.90;54.68;103240.75;5040692;28;20256;-78
2023/02/09 11:26:27;;;;;;;12.60;9.27;;;;;;;2.05;56.50;103272.63;5054105;28;20621;-79
2023/02/09 11:29:03;;;;;;;10.70;9.60;;;;;;;2.23;56.77;103248.78;5056310;28;20279;-78
2023/02/09 11:31:48;;;;;;;10.50;8.83;;;;;;;2.41;56.70;103243.84;5057260;28;20206;-79
2023/02/09 11:34:34;;;;;;;9.60;8.70;;;;;;;2.45;55.40;103230.34;5058893;28;20209;-79